Time;durP1;ratioP1;P1;durP2;ratioP2;P2;SDS_P1;SDS_P2;PMS_P1;PMS_P2;Temp;Humidity;BMP_temperature;BMP_pressure;BME280_temperature;BME280_humidity;BME280_pressure;Samples;Min_cycle;Max_cycle;Signal;HPM_P1;HPM_P2
2022/11/21 00:02:39;;;;;;;139.75;47.92;;;;;;;;;;4979046;28;20137;-74
2022/11/21 00:05:13;;;;;;;134.43;48.33;;;;;;;;;;4961571;28;20466;-73
2022/11/21 00:07:50;;;;;;;136.48;46.70;;;;;;;;;;4924456;28;20208;-73
2022/11/21 00:14:03;;;;;;;131.38;46.60;;;;;;;;;;4898842;28;20037;-73
2022/11/21 00:16:44;;;;;;;133.77;46.85;;;;;;;;;;4944614;28;20167;-73
2022/11/21 00:19:27;;;;;;;119.97;44.05;;;;;;;;;;4921121;28;20037;-73
2022/11/21 00:22:00;;;;;;;132.38;47.03;;;;;;;;;;4901788;28;20635;-74
2022/11/21 00:24:49;;;;;;;129.95;47.03;;;;;;;;;;4912899;28;20083;-73
2022/11/21 00:30:26;;;;;;;140.95;48.22;;;;;;;;;;4859269;28;20047;-73
2022/11/21 00:33:18;;;;;;;131.85;45.60;;;;;;;;;;4904731;28;20590;-74
2022/11/21 00:35:47;;;;;;;136.95;46.95;;;;;;;;;;4933226;28;20132;-73
2022/11/21 00:38:13;;;;;;;141.50;46.88;;;;;;;;;;4948397;28;20601;-73
2022/11/21 00:40:39;;;;;;;123.35;46.03;;;;;;;;;;4944306;28;20125;-74
2022/11/21 00:43:05;;;;;;;126.85;44.13;;;;;;;;;;4945656;28;20132;-73
2022/11/21 00:45:37;;;;;;;125.55;44.63;;;;;;;;;;4947840;28;21047;-73
2022/11/21 00:51:40;;;;;;;125.22;44.67;;;;;;;;;;4888285;28;20680;-74
2022/11/21 00:54:25;;;;;;;113.10;43.75;;;;;;;;;;4888683;28;20048;-73
2022/11/21 00:57:12;;;;;;;137.45;45.85;;;;;;;;;;4946404;28;20040;-73
2022/11/21 00:59:55;;;;;;;123.78;46.72;;;;;;;;;;4972359;28;20041;-73
2022/11/21 01:02:55;;;;;;;129.70;47.13;;;;;;;;;;4928571;28;20038;-74
2022/11/21 01:05:37;;;;;;;;;;;;;;;;;;;;;
2022/11/21 01:08:31;;;;;;;132.25;47.08;;;;;;;;;;4918813;28;20182;-74
2022/11/21 01:11:31;;;;;;;137.20;45.58;;;;;;;;;;4886206;28;21138;-73
2022/11/21 01:14:20;;;;;;;130.48;46.45;;;;;;;;;;4949372;28;20039;-73
2022/11/21 01:17:11;;;;;;;118.68;45.30;;;;;;;;;;4945697;28;20067;-73
2022/11/21 01:19:45;;;;;;;124.75;45.38;;;;;;;;;;4889916;28;20040;-73
2022/11/21 01:29:07;;;;;;;116.53;41.55;;;;;;;;;;4856206;28;20527;-74
2022/11/21 01:32:09;;;;;;;;;;;;;;;;;;;;;
2022/11/21 01:34:44;;;;;;;118.13;41.72;;;;;;;;;;4925670;28;21165;-75
2022/11/21 01:37:13;;;;;;;112.40;43.40;;;;;;;;;;4963251;28;20083;-74
2022/11/21 01:39:47;;;;;;;127.30;43.72;;;;;;;;;;4941319;28;20537;-74
2022/11/21 01:42:15;;;;;;;121.13;44.45;;;;;;;;;;4942247;28;20056;-73
2022/11/21 01:44:59;;;;;;;125.00;43.00;;;;;;;;;;5007939;28;20094;-73
2022/11/21 01:48:00;;;;;;;126.05;43.10;;;;;;;;;;4971000;28;20039;-74
2022/11/21 01:50:50;;;;;;;125.05;43.08;;;;;;;;;;4939823;28;20052;-73
2022/11/21 01:53:44;;;;;;;108.10;41.17;;;;;;;;;;4912307;28;20651;-74
2022/11/21 01:56:16;;;;;;;106.93;40.63;;;;;;;;;;4897464;28;20052;-74
2022/11/21 01:58:58;;;;;;;112.05;41.67;;;;;;;;;;4912714;28;20488;-73
2022/11/21 02:01:35;;;;;;;146.25;42.80;;;;;;;;;;4941764;28;20037;-73
2022/11/21 02:04:29;;;;;;;127.53;42.10;;;;;;;;;;4899892;28;20150;-73
2022/11/21 02:07:22;;;;;;;141.20;41.45;;;;;;;;;;4922896;28;20040;-73
2022/11/21 02:10:03;;;;;;;120.32;39.83;;;;;;;;;;4926302;28;20099;-73
2022/11/21 02:13:02;;;;;;;152.65;41.83;;;;;;;;;;4897534;28;20506;-73
2022/11/21 02:15:47;;;;;;;;;;;;;;;;;;;;;
2022/11/21 02:18:32;;;;;;;141.07;40.50;;;;;;;;;;4875668;28;20225;-73
2022/11/21 02:21:54;;;;;;;173.85;42.22;;;;;;;;;;4908698;28;20244;-73
2022/11/21 02:24:55;;;;;;;140.23;42.85;;;;;;;;;;4858221;28;20508;-73
2022/11/21 02:27:29;;;;;;;127.38;40.75;;;;;;;;;;4849739;28;20640;-73
2022/11/21 02:30:26;;;;;;;114.32;37.28;;;;;;;;;;4880319;28;22242;-73
2022/11/21 02:33:01;;;;;;;103.45;38.25;;;;;;;;;;4885384;28;20455;-73
2022/11/21 02:36:00;;;;;;;96.30;36.83;;;;;;;;;;4895524;28;20528;-73
2022/11/21 02:38:55;;;;;;;93.45;37.30;;;;;;;;;;4907976;28;20471;-74
2022/11/21 02:44:26;;;;;;;97.68;38.70;;;;;;;;;;4944449;28;20457;-73
2022/11/21 02:47:20;;;;;;;;;;;;;;;;;;;;;
2022/11/21 02:49:55;;;;;;;100.47;38.50;;;;;;;;;;4952835;28;20038;-74
2022/11/21 02:52:24;;;;;;;97.03;38.80;;;;;;;;;;4969903;28;20750;-73
2022/11/21 02:54:52;;;;;;;102.18;41.38;;;;;;;;;;4987240;28;20033;-74
2022/11/21 02:57:23;;;;;;;106.97;40.85;;;;;;;;;;4988355;28;20036;-73
2022/11/21 02:59:51;;;;;;;106.72;40.75;;;;;;;;;;4961861;28;20212;-73
2022/11/21 03:02:20;;;;;;;115.20;41.28;;;;;;;;;;4981697;28;20366;-73
2022/11/21 03:08:14;;;;;;;112.88;40.33;;;;;;;;;;4934392;28;20626;-73
2022/11/21 03:13:53;;;;;;;;;;;;;;;;;;;;;
2022/11/21 03:16:22;;;;;;;138.60;42.65;;;;;;;;;;4925421;28;20629;-73
2022/11/21 03:18:58;;;;;;;154.18;44.05;;;;;;;;;;4986484;28;20063;-73
2022/11/21 03:21:39;;;;;;;178.95;45.85;;;;;;;;;;4940668;28;20044;-73
2022/11/21 03:24:20;;;;;;;163.00;43.15;;;;;;;;;;4945665;28;20859;-73
2022/11/21 03:27:22;;;;;;;162.93;43.97;;;;;;;;;;4963443;28;20043;-73
2022/11/21 03:29:53;;;;;;;150.07;43.75;;;;;;;;;;4892495;28;20368;-74
2022/11/21 03:32:19;;;;;;;188.27;46.25;;;;;;;;;;4986627;28;20665;-74
2022/11/21 03:35:10;;;;;;;182.95;46.75;;;;;;;;;;4994157;28;20041;-73
2022/11/21 03:37:58;;;;;;;149.35;44.13;;;;;;;;;;4943351;28;20127;-73
2022/11/21 03:40:30;;;;;;;168.32;47.05;;;;;;;;;;4961172;28;20049;-74
2022/11/21 03:43:17;;;;;;;;;;;;;;;;;;;;;
2022/11/21 03:46:15;;;;;;;169.02;48.53;;;;;;;;;;4963663;28;20040;-73
2022/11/21 03:48:46;;;;;;;190.48;49.75;;;;;;;;;;4920052;28;20045;-72
2022/11/21 03:51:15;;;;;;;195.77;49.80;;;;;;;;;;4959764;28;20617;-73
2022/11/21 03:53:44;;;;;;;187.27;51.80;;;;;;;;;;4889142;28;20244;-73
2022/11/21 03:56:10;;;;;;;183.52;50.95;;;;;;;;;;4940605;28;20041;-74
2022/11/21 03:58:38;;;;;;;187.40;50.63;;;;;;;;;;4936799;28;20117;-73
2022/11/21 04:01:07;;;;;;;162.38;50.90;;;;;;;;;;4952361;28;20043;-73
2022/11/21 04:03:39;;;;;;;209.23;54.47;;;;;;;;;;4985616;28;20620;-73
2022/11/21 04:06:12;;;;;;;182.68;49.78;;;;;;;;;;4968241;28;20040;-74
2022/11/21 04:08:43;;;;;;;142.55;45.42;;;;;;;;;;4989205;28;20033;-73
2022/11/21 04:11:09;;;;;;;156.73;47.15;;;;;;;;;;5002763;28;20225;-73
2022/11/21 04:13:34;;;;;;;145.35;47.83;;;;;;;;;;4997897;28;20481;-73
2022/11/21 04:16:13;;;;;;;168.93;50.53;;;;;;;;;;4982816;28;20075;-73
2022/11/21 04:18:54;;;;;;;126.70;45.05;;;;;;;;;;4933295;28;20709;-74
2022/11/21 04:21:37;;;;;;;135.52;46.92;;;;;;;;;;4993634;28;20701;-73
2022/11/21 04:24:24;;;;;;;159.98;50.58;;;;;;;;;;4964776;28;20075;-73
2022/11/21 04:27:10;;;;;;;172.38;53.10;;;;;;;;;;4954595;28;20046;-73
2022/11/21 04:29:36;;;;;;;167.52;52.30;;;;;;;;;;4936565;28;20050;-73
2022/11/21 04:32:02;;;;;;;196.88;56.78;;;;;;;;;;4952720;28;20232;-74
2022/11/21 04:34:36;;;;;;;192.90;53.47;;;;;;;;;;4988024;28;20382;-73
2022/11/21 04:37:08;;;;;;;235.73;54.38;;;;;;;;;;4916349;28;20038;-73
2022/11/21 04:39:36;;;;;;;239.75;58.63;;;;;;;;;;4952547;28;20203;-72
2022/11/21 04:42:05;;;;;;;216.52;56.85;;;;;;;;;;4947469;28;20498;-73
2022/11/21 04:44:35;;;;;;;221.45;57.80;;;;;;;;;;4943953;28;20033;-72
2022/11/21 04:47:01;;;;;;;198.32;56.00;;;;;;;;;;4975966;28;20091;-73
2022/11/21 04:49:27;;;;;;;211.30;60.33;;;;;;;;;;5000631;28;20174;-72
2022/11/21 04:52:08;;;;;;;197.88;57.15;;;;;;;;;;4978478;28;20283;-73
2022/11/21 04:54:42;;;;;;;183.93;56.78;;;;;;;;;;4995863;28;20715;-73
2022/11/21 04:57:07;;;;;;;191.63;52.83;;;;;;;;;;5005909;28;20066;-74
2022/11/21 04:59:33;;;;;;;192.40;54.33;;;;;;;;;;5007349;28;20045;-74
2022/11/21 05:01:59;;;;;;;180.88;51.95;;;;;;;;;;4987380;28;20120;-73
2022/11/21 05:04:25;;;;;;;201.68;53.47;;;;;;;;;;5016713;28;20033;-73
2022/11/21 05:06:56;;;;;;;209.32;55.47;;;;;;;;;;4999824;28;20028;-73
2022/11/21 05:09:24;;;;;;;206.70;56.45;;;;;;;;;;5008086;28;20041;-74
2022/11/21 05:14:35;;;;;;;192.63;51.55;;;;;;;;;;4967589;28;20038;-74
2022/11/21 05:17:00;;;;;;;229.30;53.38;;;;;;;;;;5012381;28;20450;-75
2022/11/21 05:19:26;;;;;;;223.95;57.33;;;;;;;;;;4977548;28;20040;-74
2022/11/21 05:21:52;;;;;;;271.52;56.05;;;;;;;;;;4978564;28;20041;-75
2022/11/21 05:24:18;;;;;;;305.25;55.38;;;;;;;;;;4978757;28;20029;-75
2022/11/21 05:26:52;;;;;;;198.73;47.80;;;;;;;;;;4993405;28;20069;-74
2022/11/21 05:29:23;;;;;;;301.65;56.10;;;;;;;;;;4946220;28;20037;-73
2022/11/21 05:31:52;;;;;;;291.92;54.88;;;;;;;;;;4997348;28;20041;-74
2022/11/21 05:34:20;;;;;;;280.98;53.72;;;;;;;;;;4971932;28;20544;-73
2022/11/21 05:36:58;;;;;;;292.90;56.15;;;;;;;;;;4988153;28;20682;-73
2022/11/21 05:39:29;;;;;;;286.63;55.45;;;;;;;;;;4961650;28;20289;-72
2022/11/21 05:42:01;;;;;;;270.10;53.70;;;;;;;;;;4992538;28;20483;-73
2022/11/21 05:44:30;;;;;;;311.20;52.15;;;;;;;;;;4934038;28;20029;-73
2022/11/21 05:47:19;;;;;;;;;;;;;;;;;;;;;
2022/11/21 05:49:48;;;;;;;329.05;55.30;;;;;;;;;;4949937;28;20182;-73
2022/11/21 05:52:14;;;;;;;312.63;56.13;;;;;;;;;;4986597;28;20044;-72
2022/11/21 05:54:50;;;;;;;391.92;57.00;;;;;;;;;;4986052;28;20084;-73
2022/11/21 05:57:29;;;;;;;415.15;57.13;;;;;;;;;;4979358;28;20787;-73
2022/11/21 06:00:01;;;;;;;267.45;53.92;;;;;;;;;;4994616;28;20063;-73
2022/11/21 06:05:18;;;;;;;218.80;56.40;;;;;;;;;;4979656;28;20175;-73
2022/11/21 06:07:44;;;;;;;236.65;59.72;;;;;;;;;;4989172;28;20397;-73
2022/11/21 06:10:18;;;;;;;234.07;59.05;;;;;;;;;;5002772;28;20327;-73
2022/11/21 06:12:52;;;;;;;251.65;57.60;;;;;;;;;;5000112;28;20822;-74
2022/11/21 06:15:23;;;;;;;193.05;52.28;;;;;;;;;;4989550;28;20040;-73
2022/11/21 06:17:52;;;;;;;165.85;47.80;;;;;;;;;;4953011;28;20120;-72
2022/11/21 06:20:21;;;;;;;162.27;46.97;;;;;;;;;;4965899;28;20040;-71
2022/11/21 06:22:58;;;;;;;153.82;44.15;;;;;;;;;;4983748;28;20067;-73
2022/11/21 06:25:30;;;;;;;159.45;47.08;;;;;;;;;;4999122;28;20488;-72
2022/11/21 06:28:01;;;;;;;154.05;46.20;;;;;;;;;;4998297;28;22745;-71
2022/11/21 06:30:53;;;;;;;162.30;48.28;;;;;;;;;;4964260;28;20854;-72
2022/11/21 06:33:21;;;;;;;149.15;48.42;;;;;;;;;;4971207;28;20036;-71
2022/11/21 06:35:52;;;;;;;149.68;51.28;;;;;;;;;;4979857;28;20039;-72
2022/11/21 06:38:18;;;;;;;145.73;48.20;;;;;;;;;;4990171;28;20144;-71
2022/11/21 06:41:07;;;;;;;139.80;46.10;;;;;;;;;;4969294;28;20644;-71
2022/11/21 06:43:47;;;;;;;142.32;45.63;;;;;;;;;;4990874;28;20596;-72
2022/11/21 06:46:29;;;;;;;;;;;;;;;;;;;;;
2022/11/21 06:49:07;;;;;;;153.77;49.67;;;;;;;;;;4971227;28;20051;-72
2022/11/21 06:51:51;;;;;;;156.23;51.28;;;;;;;;;;4967767;28;20079;-73
2022/11/21 06:54:20;;;;;;;152.70;53.55;;;;;;;;;;4975337;28;20028;-72
2022/11/21 06:56:46;;;;;;;147.68;53.28;;;;;;;;;;4965720;28;20536;-73
2022/11/21 06:59:38;;;;;;;163.05;53.40;;;;;;;;;;4975101;28;20087;-73
2022/11/21 07:02:05;;;;;;;148.45;50.60;;;;;;;;;;4958841;28;20039;-72
2022/11/21 07:04:37;;;;;;;151.55;51.83;;;;;;;;;;4974338;28;20036;-73
2022/11/21 07:07:15;;;;;;;134.55;49.63;;;;;;;;;;4941702;28;20053;-73
2022/11/21 07:09:52;;;;;;;143.63;51.15;;;;;;;;;;4964287;28;20091;-73
2022/11/21 07:15:14;;;;;;;163.70;57.15;;;;;;;;;;4922583;28;20034;-72
2022/11/21 07:17:45;;;;;;;159.25;58.13;;;;;;;;;;4959765;28;20770;-72
2022/11/21 07:20:13;;;;;;;151.80;54.00;;;;;;;;;;4991941;28;20044;-75
2022/11/21 07:22:41;;;;;;;148.55;52.42;;;;;;;;;;4989906;28;20143;-72
2022/11/21 07:25:27;;;;;;;130.90;49.55;;;;;;;;;;4956774;28;20046;-73
2022/11/21 07:28:00;;;;;;;134.68;50.50;;;;;;;;;;5011448;28;20127;-72
2022/11/21 07:30:31;;;;;;;161.68;50.28;;;;;;;;;;4941427;28;20692;-72
2022/11/21 07:33:08;;;;;;;124.63;47.85;;;;;;;;;;4976340;28;20040;-72
2022/11/21 07:35:36;;;;;;;144.45;52.45;;;;;;;;;;4997422;28;20048;-72
2022/11/21 07:38:20;;;;;;;148.73;53.88;;;;;;;;;;4961259;28;20113;-73
2022/11/21 07:40:50;;;;;;;151.85;52.92;;;;;;;;;;4982804;28;20040;-72
2022/11/21 07:43:31;;;;;;;143.02;51.28;;;;;;;;;;4963612;28;20087;-72
2022/11/21 07:45:57;;;;;;;132.18;51.72;;;;;;;;;;4984426;28;20083;-74
2022/11/21 07:48:25;;;;;;;124.95;50.15;;;;;;;;;;4972290;28;20056;-71
2022/11/21 07:50:51;;;;;;;153.38;54.58;;;;;;;;;;5001683;28;20052;-73
2022/11/21 07:53:16;;;;;;;125.28;49.58;;;;;;;;;;5003378;28;20678;-72
2022/11/21 07:55:41;;;;;;;137.30;54.58;;;;;;;;;;5006547;28;20079;-73
2022/11/21 07:58:08;;;;;;;146.65;54.35;;;;;;;;;;4979983;28;20041;-72
2022/11/21 08:00:34;;;;;;;147.10;55.70;;;;;;;;;;4976624;28;20045;-73
2022/11/21 08:03:00;;;;;;;147.75;55.30;;;;;;;;;;4967297;28;20051;-73
2022/11/21 08:05:29;;;;;;;129.70;51.95;;;;;;;;;;4944663;28;20041;-72
2022/11/21 08:08:00;;;;;;;128.25;54.97;;;;;;;;;;5008464;28;20040;-73
2022/11/21 08:10:25;;;;;;;139.43;55.83;;;;;;;;;;5009736;28;20054;-73
2022/11/21 08:12:51;;;;;;;135.95;55.63;;;;;;;;;;4975251;28;20474;-72
2022/11/21 08:15:17;;;;;;;143.48;55.28;;;;;;;;;;4978381;28;20141;-72
2022/11/21 08:17:46;;;;;;;133.35;57.28;;;;;;;;;;4985077;28;20046;-72
2022/11/21 08:20:12;;;;;;;141.43;53.40;;;;;;;;;;4971751;28;20037;-72
2022/11/21 08:22:47;;;;;;;122.47;51.70;;;;;;;;;;4962837;28;20045;-72
2022/11/21 08:25:18;;;;;;;137.05;51.53;;;;;;;;;;4994954;28;20754;-73
2022/11/21 08:27:44;;;;;;;133.63;50.60;;;;;;;;;;4955289;28;20121;-72
2022/11/21 08:30:10;;;;;;;146.75;56.67;;;;;;;;;;4982050;28;20372;-71
2022/11/21 08:32:39;;;;;;;147.68;56.58;;;;;;;;;;4979548;28;20037;-72
2022/11/21 08:35:07;;;;;;;181.60;58.92;;;;;;;;;;4995492;28;20044;-71
2022/11/21 08:37:38;;;;;;;169.90;59.95;;;;;;;;;;4974296;28;21232;-70
2022/11/21 08:40:04;;;;;;;161.85;61.00;;;;;;;;;;4997778;28;20415;-72
2022/11/21 08:42:30;;;;;;;157.35;59.83;;;;;;;;;;5004243;28;20076;-73
2022/11/21 08:44:57;;;;;;;173.00;63.25;;;;;;;;;;4999275;28;20640;-72
2022/11/21 08:47:40;;;;;;;175.75;61.90;;;;;;;;;;4945057;28;20281;-72
2022/11/21 08:50:18;;;;;;;179.55;63.70;;;;;;;;;;4930633;28;20746;-72
2022/11/21 08:52:49;;;;;;;181.23;64.43;;;;;;;;;;4938427;28;20136;-73
2022/11/21 08:55:30;;;;;;;181.00;60.83;;;;;;;;;;4930026;28;20171;-71
2022/11/21 08:58:05;;;;;;;173.75;60.67;;;;;;;;;;4958718;28;20045;-72
2022/11/21 09:01:00;;;;;;;198.65;62.63;;;;;;;;;;4919804;28;20041;-72
2022/11/21 09:03:35;;;;;;;174.65;58.30;;;;;;;;;;4959862;28;20153;-73
2022/11/21 09:06:12;;;;;;;204.73;60.47;;;;;;;;;;4943672;28;20478;-72
2022/11/21 09:08:49;;;;;;;188.93;65.78;;;;;;;;;;4934624;28;20063;-71
2022/11/21 09:11:40;;;;;;;205.38;63.13;;;;;;;;;;4935963;28;20106;-71
2022/11/21 09:19:58;;;;;;;198.10;56.55;;;;;;;;;;4933185;28;21192;-72
2022/11/21 09:25:52;;;;;;;191.75;54.03;;;;;;;;;;4934396;28;20041;-73
2022/11/21 09:29:02;;;;;;;172.57;53.08;;;;;;;;;;4924627;28;20047;-73
2022/11/21 09:31:42;;;;;;;193.90;57.25;;;;;;;;;;4927343;28;20059;-72
2022/11/21 09:34:50;;;;;;;;;;;;;;;;;;;;;
2022/11/21 09:37:43;;;;;;;193.38;55.17;;;;;;;;;;4963575;28;22095;-73
2022/11/21 09:40:47;;;;;;;154.30;47.10;;;;;;;;;;4952964;28;21305;-73
2022/11/21 09:43:57;;;;;;;148.90;47.20;;;;;;;;;;4982278;28;20035;-72
2022/11/21 09:46:43;;;;;;;171.52;51.17;;;;;;;;;;4928611;28;20033;-71
2022/11/21 09:49:12;;;;;;;168.38;50.67;;;;;;;;;;4964430;28;20087;-72
2022/11/21 09:51:42;;;;;;;138.60;47.63;;;;;;;;;;4977319;28;20052;-72
2022/11/21 09:54:21;;;;;;;159.70;47.17;;;;;;;;;;4948090;28;20033;-70
2022/11/21 09:56:51;;;;;;;160.25;47.72;;;;;;;;;;4970299;28;20040;-72
2022/11/21 09:59:26;;;;;;;156.52;45.25;;;;;;;;;;4987900;28;20094;-72
2022/11/21 10:01:58;;;;;;;134.88;45.50;;;;;;;;;;4972144;28;20048;-72
2022/11/21 10:04:26;;;;;;;;;;;;;;;;;;4973620;28;20587;-72
2022/11/21 10:07:09;;;;;;;165.13;50.03;;;;;;;;;;4963420;28;19964;-72
2022/11/21 10:09:54;;;;;;;125.13;45.92;;;;;;;;;;4901382;28;20037;-70
2022/11/21 10:12:52;;;;;;;167.80;46.88;;;;;;;;;;4954912;28;20215;-70
2022/11/21 10:15:39;;;;;;;159.52;51.17;;;;;;;;;;4977786;28;20032;-69
2022/11/21 10:18:22;;;;;;;149.32;56.00;;;;;;;;;;4938355;28;20490;-70
2022/11/21 10:20:57;;;;;;;125.70;49.53;;;;;;;;;;4957510;28;20155;-70
2022/11/21 10:24:11;;;;;;;114.95;48.60;;;;;;;;;;4922132;28;20979;-70
2022/11/21 10:27:03;;;;;;;140.75;52.55;;;;;;;;;;4917796;28;20164;-70
2022/11/21 10:29:55;;;;;;;125.68;49.05;;;;;;;;;;4917622;28;20070;-70
2022/11/21 10:32:35;;;;;;;104.32;46.60;;;;;;;;;;4944975;28;20796;-70
2022/11/21 10:35:35;;;;;;;111.53;45.15;;;;;;;;;;4928396;28;20037;-70
2022/11/21 10:38:21;;;;;;;102.43;45.50;;;;;;;;;;4918697;28;20048;-71
2022/11/21 10:41:08;;;;;;;126.65;49.60;;;;;;;;;;4936873;28;20034;-72
2022/11/21 10:46:59;;;;;;;102.38;39.47;;;;;;;;;;4951874;28;20038;-73
2022/11/21 10:49:25;;;;;;;93.53;37.00;;;;;;;;;;4992093;28;20819;-73
2022/11/21 10:51:56;;;;;;;98.20;41.47;;;;;;;;;;4950220;28;22099;-74
2022/11/21 10:54:33;;;;;;;122.68;47.00;;;;;;;;;;4932838;28;20064;-73
2022/11/21 10:57:15;;;;;;;147.82;51.33;;;;;;;;;;4955297;28;20055;-74
2022/11/21 10:59:58;;;;;;;112.85;44.83;;;;;;;;;;4923661;28;20131;-74
2022/11/21 11:02:24;;;;;;;93.68;39.13;;;;;;;;;;4986308;28;20029;-75
2022/11/21 11:05:10;;;;;;;97.78;39.17;;;;;;;;;;5012853;28;20029;-75
2022/11/21 11:07:35;;;;;;;89.40;39.38;;;;;;;;;;4985384;28;20498;-76
2022/11/21 11:10:14;;;;;;;89.35;39.38;;;;;;;;;;4994457;28;20073;-75
2022/11/21 11:15:25;;;;;;;80.60;35.38;;;;;;;;;;4997632;28;20038;-76
2022/11/21 11:17:51;;;;;;;82.10;36.42;;;;;;;;;;4997266;28;20037;-76
2022/11/21 11:20:32;;;;;;;90.97;40.47;;;;;;;;;;4978495;28;20164;-75
2022/11/21 11:23:14;;;;;;;87.63;39.92;;;;;;;;;;4961468;28;20037;-73
2022/11/21 11:25:57;;;;;;;71.13;34.08;;;;;;;;;;4925555;28;22495;-73
2022/11/21 11:28:36;;;;;;;70.18;33.53;;;;;;;;;;4918232;28;20040;-74
2022/11/21 11:31:09;;;;;;;63.90;31.77;;;;;;;;;;4963822;28;21128;-74
2022/11/21 11:33:39;;;;;;;66.40;32.22;;;;;;;;;;4950484;28;20045;-74
2022/11/21 11:36:15;;;;;;;67.85;32.63;;;;;;;;;;4973988;28;20033;-75
2022/11/21 11:38:54;;;;;;;67.78;33.05;;;;;;;;;;4994138;28;20037;-75
2022/11/21 11:47:29;;;;;;;63.55;34.05;;;;;;;;;;4990534;28;20356;-74
2022/11/21 11:47:31;;;;;;;75.93;38.33;;;;;;;;;;4975518;28;20263;-74
2022/11/21 11:50:11;;;;;;;72.78;37.65;;;;;;;;;;4991981;28;20083;-75
2022/11/21 11:52:56;;;;;;;73.07;37.42;;;;;;;;;;4976777;28;20045;-75
2022/11/21 11:55:30;;;;;;;72.65;37.17;;;;;;;;;;4969944;28;20037;-74
2022/11/21 11:57:59;;;;;;;75.25;36.28;;;;;;;;;;4980237;28;20665;-74
2022/11/21 12:00:43;;;;;;;67.65;34.13;;;;;;;;;;4977462;28;20033;-74
2022/11/21 12:03:09;;;;;;;67.00;35.22;;;;;;;;;;5001642;28;20038;-74
2022/11/21 12:05:36;;;;;;;71.82;34.95;;;;;;;;;;4999064;28;20028;-75
2022/11/21 12:08:10;;;;;;;69.45;33.97;;;;;;;;;;4995472;28;20049;-74
2022/11/21 12:13:30;;;;;;;69.82;35.10;;;;;;;;;;5002711;28;20041;-75
2022/11/21 12:15:58;;;;;;;55.90;31.10;;;;;;;;;;5003252;28;20359;-74
2022/11/21 12:18:38;;;;;;;59.92;31.55;;;;;;;;;;5001417;28;20037;-74
2022/11/21 12:21:19;;;;;;;69.05;34.17;;;;;;;;;;5001668;28;20033;-74
2022/11/21 12:23:50;;;;;;;72.28;35.30;;;;;;;;;;5024454;28;20047;-74
2022/11/21 12:26:18;;;;;;;64.82;34.75;;;;;;;;;;5002744;28;20045;-73
2022/11/21 12:28:50;;;;;;;52.78;31.17;;;;;;;;;;5002135;28;20033;-74
2022/11/21 12:31:23;;;;;;;57.43;33.30;;;;;;;;;;5028463;28;20161;-74
2022/11/21 12:33:59;;;;;;;58.25;33.53;;;;;;;;;;5001601;28;20644;-73
2022/11/21 12:36:33;;;;;;;58.50;32.33;;;;;;;;;;5001047;28;20279;-73
2022/11/21 12:39:11;;;;;;;50.90;31.35;;;;;;;;;;4999744;28;20124;-74
2022/11/21 12:44:38;;;;;;;49.08;27.67;;;;;;;;;;5033011;28;20047;-74
2022/11/21 12:47:21;;;;;;;50.58;26.02;;;;;;;;;;4990011;28;20138;-74
2022/11/21 12:55:35;;;;;;;44.78;26.90;;;;;;;;;;5002407;28;20209;-75
2022/11/21 12:58:04;;;;;;;53.63;34.97;;;;;;;;;;4999840;28;20701;-74
2022/11/21 13:00:32;;;;;;;;;;;;;;;;;;4995349;28;20351;-72
2022/11/21 13:03:19;;;;;;;51.00;31.25;;;;;;;;;;5004629;28;20492;-73
2022/11/21 13:05:47;;;;;;;47.17;26.35;;;;;;;;;;4980203;28;20061;-74
2022/11/21 13:08:18;;;;;;;38.28;21.40;;;;;;;;;;4977765;28;20030;-74
2022/11/21 13:13:48;;;;;;;67.45;42.05;;;;;;;;;;4979405;28;20524;-72
2022/11/21 13:16:35;;;;;;;40.70;21.58;;;;;;;;;;4977862;28;20276;-73
2022/11/21 13:19:03;;;;;;;40.15;16.90;;;;;;;;;;4982097;28;20140;-73
2022/11/21 13:21:39;;;;;;;29.92;19.23;;;;;;;;;;4981217;28;20035;-72
2022/11/21 13:24:05;;;;;;;24.88;14.20;;;;;;;;;;4980126;28;20038;-74
2022/11/21 13:26:30;;;;;;;28.17;16.52;;;;;;;;;;4982443;28;20253;-73
2022/11/21 13:29:11;;;;;;;30.23;12.63;;;;;;;;;;4982821;28;20038;-73
2022/11/21 13:31:39;;;;;;;25.13;10.63;;;;;;;;;;4979940;28;20855;-72
2022/11/21 13:34:24;;;;;;;28.83;13.55;;;;;;;;;;5011572;28;20072;-72
2022/11/21 13:36:50;;;;;;;28.20;11.40;;;;;;;;;;4980373;28;20766;-72
2022/11/21 13:39:15;;;;;;;26.98;11.50;;;;;;;;;;4982381;28;20092;-72
2022/11/21 13:44:30;;;;;;;23.02;10.05;;;;;;;;;;5002725;28;20071;-68
2022/11/21 13:47:11;;;;;;;26.90;10.45;;;;;;;;;;4985538;28;20044;-69
2022/11/21 13:49:45;;;;;;;22.05;10.93;;;;;;;;;;4994744;28;20044;-69
2022/11/21 13:52:29;;;;;;;21.33;11.32;;;;;;;;;;4997245;28;20068;-69
2022/11/21 13:55:13;;;;;;;23.13;11.05;;;;;;;;;;4979285;28;20513;-69
2022/11/21 13:57:48;;;;;;;22.50;10.77;;;;;;;;;;4975942;28;20453;-69
2022/11/21 14:00:33;;;;;;;24.55;10.65;;;;;;;;;;4949595;28;20053;-69
2022/11/21 14:03:01;;;;;;;24.92;10.68;;;;;;;;;;4998913;28;20095;-69
2022/11/21 14:05:30;;;;;;;19.95;9.60;;;;;;;;;;4998836;28;20055;-69
2022/11/21 14:08:10;;;;;;;18.83;8.30;;;;;;;;;;5031606;28;20060;-69
2022/11/21 14:10:35;;;;;;;21.20;7.50;;;;;;;;;;4999372;28;20463;-69
2022/11/21 14:13:02;;;;;;;19.08;8.13;;;;;;;;;;4997110;28;20071;-69
2022/11/21 14:15:33;;;;;;;18.70;8.90;;;;;;;;;;4969505;28;20379;-68
2022/11/21 14:18:00;;;;;;;19.92;7.88;;;;;;;;;;5004302;28;20041;-69
2022/11/21 14:20:27;;;;;;;25.00;9.30;;;;;;;;;;4982609;28;20041;-69
2022/11/21 14:22:53;;;;;;;18.73;7.85;;;;;;;;;;5000808;28;22205;-69
2022/11/21 14:25:21;;;;;;;19.77;9.38;;;;;;;;;;4997160;28;20044;-68
2022/11/21 14:27:50;;;;;;;18.98;9.20;;;;;;;;;;4998187;28;20583;-68
2022/11/21 14:30:33;;;;;;;22.05;8.07;;;;;;;;;;4997412;28;20136;-68
2022/11/21 14:33:17;;;;;;;19.13;8.27;;;;;;;;;;4998035;28;20334;-68
2022/11/21 14:35:46;;;;;;;16.77;8.15;;;;;;;;;;4996058;28;20054;-68
2022/11/21 14:38:13;;;;;;;16.33;7.22;;;;;;;;;;4998424;28;20040;-68
2022/11/21 14:40:38;;;;;;;16.48;6.63;;;;;;;;;;5001165;28;20043;-69
2022/11/21 14:43:24;;;;;;;15.15;5.65;;;;;;;;;;4998889;28;20037;-69
2022/11/21 14:45:50;;;;;;;15.20;5.78;;;;;;;;;;5024385;28;20131;-70
2022/11/21 14:48:23;;;;;;;15.20;5.47;;;;;;;;;;5008205;28;20037;-67
2022/11/21 14:50:49;;;;;;;15.57;5.18;;;;;;;;;;4995496;28;21188;-68
2022/11/21 14:53:15;;;;;;;11.77;5.20;;;;;;;;;;5004143;28;21573;-68
2022/11/21 14:55:43;;;;;;;14.20;4.90;;;;;;;;;;4989925;28;20034;-68
2022/11/21 14:58:13;;;;;;;12.93;6.07;;;;;;;;;;4979067;28;20103;-68
2022/11/21 15:00:38;;;;;;;18.10;5.82;;;;;;;;;;4978294;28;20037;-68
2022/11/21 15:03:15;;;;;;;12.23;5.10;;;;;;;;;;4980233;28;20844;-68
2022/11/21 15:05:41;;;;;;;17.90;6.10;;;;;;;;;;4984345;28;20048;-68
2022/11/21 15:08:07;;;;;;;14.18;5.50;;;;;;;;;;4974519;28;20045;-67
2022/11/21 15:10:36;;;;;;;19.15;6.03;;;;;;;;;;4998195;28;20053;-71
2022/11/21 15:13:04;;;;;;;11.75;5.55;;;;;;;;;;4997595;28;20033;-71
2022/11/21 15:15:34;;;;;;;13.02;5.25;;;;;;;;;;4999001;28;22442;-70
2022/11/21 15:18:00;;;;;;;16.83;6.68;;;;;;;;;;5028338;28;20840;-72
2022/11/21 15:20:31;;;;;;;12.88;4.90;;;;;;;;;;4999825;28;20036;-72
2022/11/21 15:22:57;;;;;;;10.95;5.00;;;;;;;;;;4997448;28;20982;-72
2022/11/21 15:25:24;;;;;;;13.57;6.75;;;;;;;;;;4996903;28;20037;-69
2022/11/21 15:27:50;;;;;;;11.68;5.82;;;;;;;;;;5028785;28;20948;-71
2022/11/21 15:30:25;;;;;;;10.77;5.95;;;;;;;;;;4998899;28;20049;-71
2022/11/21 15:33:09;;;;;;;15.05;6.13;;;;;;;;;;4999589;28;20068;-71
2022/11/21 15:35:34;;;;;;;18.42;8.52;;;;;;;;;;4998081;28;21276;-72
2022/11/21 15:38:00;;;;;;;18.30;6.80;;;;;;;;;;4995475;28;20136;-72
2022/11/21 15:40:26;;;;;;;14.93;6.90;;;;;;;;;;5000592;28;20791;-71
2022/11/21 15:42:51;;;;;;;17.52;7.22;;;;;;;;;;4997836;28;20056;-67
2022/11/21 15:45:24;;;;;;;11.82;6.68;;;;;;;;;;4996698;28;20034;-69
2022/11/21 15:47:50;;;;;;;11.88;6.72;;;;;;;;;;4994977;28;21043;-68
2022/11/21 15:50:16;;;;;;;15.05;7.25;;;;;;;;;;4998197;28;20155;-68
2022/11/21 15:52:46;;;;;;;15.80;7.75;;;;;;;;;;4993454;28;20052;-68
2022/11/21 15:55:17;;;;;;;17.67;7.20;;;;;;;;;;4994405;28;20160;-68
2022/11/21 15:57:43;;;;;;;14.25;6.85;;;;;;;;;;4991247;28;20045;-66
2022/11/21 16:00:11;;;;;;;14.15;6.75;;;;;;;;;;4981903;28;20075;-68
2022/11/21 16:02:37;;;;;;;14.85;7.00;;;;;;;;;;4974322;28;20121;-67
2022/11/21 16:05:02;;;;;;;16.35;7.50;;;;;;;;;;4978606;28;20033;-68
2022/11/21 16:07:28;;;;;;;16.08;7.30;;;;;;;;;;4974092;28;20041;-69
2022/11/21 16:09:54;;;;;;;15.68;8.20;;;;;;;;;;4976585;28;20034;-69
2022/11/21 16:12:20;;;;;;;14.25;7.93;;;;;;;;;;4994780;28;20037;-68
2022/11/21 16:14:45;;;;;;;21.10;9.23;;;;;;;;;;4980319;28;20107;-68
2022/11/21 16:17:11;;;;;;;21.02;8.73;;;;;;;;;;4980099;28;20048;-68
2022/11/21 16:19:36;;;;;;;21.40;10.02;;;;;;;;;;4975304;28;20047;-68